Flight Number: EUR1208 Duration: 2:15
Departure: Riga Int'l Airport (EVRA) at 18:15 Distance: 733 Nm
Arrival: Ljubljana Airport (LJLJ) at 20:30 Equipment: A321

Weather Information
Riga International Airport, Latvia (EVRA) 56-55N 023-58E Sep 21, 2017 - 04:50 PM EDT / 2017.09.21 2050 UTC
Wind: from the ENE (060 degrees) at 9 MPH (8 KT):0
Visibility: greater than 7 mile(s):0
Sky conditions: overcast Temperature: 55 F (13 C) Dew Point: 53 F (12 C) Relative Humidity: 93% Pressure (altimeter): 30.06 in. Hg (1018 hPa)
ob: EVRA 212050Z 06008KT 9999 OVC037 13/12 Q1018 NOSIG cycle: 21
Sunrise: 04:12 Sunset: 16:21 (UTC)

Ljubljana / Brnik, Slovenia (LJLJ) 46-13N 014-29E 362M Sep 21, 2017 - 05:00 PM EDT / 2017.09.21 2100 UTC
Wind: Variable at 2 MPH (2 KT):0
Visibility: greater than 7 mile(s):0
Sky conditions: mostly clear Temperature: 44 F (7 C) Dew Point: 42 F (6 C) Relative Humidity: 93% Pressure (altimeter): 30.12 in. Hg (1020 hPa)
ob: LJLJ 212100Z VRB02KT 9999 FEW070 07/06 Q1020 NOSIG cycle: 21
Sunrise: 04:51 Sunset: 16:58 (UTC)

TAF:2017/09/21 21:03 TAF TAF LJLJ 212000Z 2121/2221 30002KT 9999 FEW060 PROB40 TEMPO 2202/2207 3500 BCFG BR FEW001 PROB30 TEMPO 2203/2206 0600 FG VV001 BECMG 2208/2209 12005KT BECMG 2219/2221 30003KT CAVOK

Previous Pireps for this route
Date Aircraft Flight time Fuel used Landing rate On time
2013-01-26A32102.1012832-381No
2013-03-13A3212.1814340-195No
2013-03-21A32102.1513884-249Yes
2013-08-17A32102.3115619-184No
2013-10-21A32102.1113288-150Yes
2014-07-01B73702.1912161-215Yes
2014-10-15A32102.0612297-231Yes
(pireps marked green are flown by you)

Route map